Time;durP1;ratioP1;P1;durP2;ratioP2;P2;SDS_P1;SDS_P2;PMS_P1;PMS_P2;Temp;Humidity;BMP_temperature;BMP_pressure;BME280_temperature;BME280_humidity;BME280_pressure;Samples;Min_cycle;Max_cycle;Signal;HPM_P1;HPM_P2
2022/05/12 00:00:06;;;;;;;;;;;;;;;;;;1038521;28;3960;-47
2022/05/12 00:00:40;;;;;;;;;;;;;;;;;;1038631;28;3789;-51
2022/05/12 00:01:11;;;;;;;;;;;;;;;;;;1035417;28;4226;-47
2022/05/12 00:01:41;;;;;;;;;;;;;;;;;;1032330;28;4027;-51
2022/05/12 00:02:11;;;;;;;;;;;;;;;;;;1032430;28;3941;-49
2022/05/12 00:02:42;;;;;;;;;;;;;;;;;;1033459;28;4056;-48
2022/05/12 00:03:13;;;;;;;;;;;;;;;;;;1040708;28;4382;-48
2022/05/12 00:03:43;;;;;;;;;;;;;;;;;;1038420;28;3719;-48
2022/05/12 00:04:13;;;;;;;;;;;;;;;;;;1040125;28;4031;-48
2022/05/12 00:04:44;;;;;;;;;;;;;;;;;;1039937;28;3931;-47
2022/05/12 00:05:14;;;;;;;;;;;;;;;;;;1038103;28;4080;-49
2022/05/12 00:05:45;;;;;;;;;;;;;;;;;;1040491;28;2997;-48
2022/05/12 00:06:15;;;;;;;;;;;;;;;;;;1039931;28;3850;-50
2022/05/12 00:06:45;;;;;;;;;;;;;;;;;;1038638;28;4005;-50
2022/05/12 00:07:16;;;;;;;;;;;;;;;;;;1038836;28;3779;-48
2022/05/12 00:07:47;;;;;;;;;;;;;;;;;;1041128;28;3873;-51
2022/05/12 00:08:18;;;;;;;;;;;;;;;;;;1039446;28;3935;-47
2022/05/12 00:08:48;;;;;;;;;;;;;;;;;;1039886;28;3419;-49
2022/05/12 00:09:18;;;;;;;;;;;;;;;;;;1039103;28;3968;-51
2022/05/12 00:09:48;;;;;;;;;;;;;;;;;;1041840;28;4051;-48
2022/05/12 00:10:21;;;;;;;;;;;;;;;;;;1038158;28;3887;-46
2022/05/12 00:10:51;;;;;;;;;;;;;;;;;;1038794;28;3912;-46
2022/05/12 00:11:21;;;;;;;;;;;;;;;;;;1040940;28;3847;-48
2022/05/12 00:11:52;;;;;;;;;;;;;;;;;;1040307;28;3791;-49
2022/05/12 00:12:23;;;;;;;;;;;;;;;;;;1037295;28;3873;-48
2022/05/12 00:12:53;;;;;;;;;;;;;;;;;;1038771;28;3868;-48
2022/05/12 00:13:24;;;;;;;;;;;;;;;;;;1038144;28;3964;-50
2022/05/12 00:13:54;;;;;;;;;;;;;;;;;;1039781;28;4249;-48
2022/05/12 00:14:25;;;;;;;;;;;;;;;;;;1041251;28;3077;-44
2022/05/12 00:14:55;;;;;;;;;;;;;;;;;;1040525;28;4036;-47
2022/05/12 00:15:27;;;;;;;;;;;;;;;;;;1039562;28;3958;-49
2022/05/12 00:15:58;;;;;;;;;;;;;;;;;;1040682;28;3782;-47
2022/05/12 00:16:28;;;;;;;;;;;;;;;;;;1042043;28;1490;-46
2022/05/12 00:16:59;;;;;;;;;;;;;;;;;;1039346;28;4312;-48
2022/05/12 00:17:29;;;;;;;;;;;;;;;;;;1040351;28;3671;-49
2022/05/12 00:18:04;;;;;;;;;;;;;;;;;;1039415;28;3856;-47
2022/05/12 00:18:34;;;;;;;;;;;;;;;;;;1035766;28;2965;-48
2022/05/12 00:19:04;;;;;;;;;;;;;;;;;;1036265;28;3796;-48
2022/05/12 00:19:35;;;;;;;;;;;;;;;;;;1036254;28;3741;-46
2022/05/12 00:20:06;;;;;;;;;;;;;;;;;;1035339;28;4126;-47
2022/05/12 00:20:37;;;;;;;;;;;;;;;;;;1040480;28;4202;-50
2022/05/12 00:21:08;;;;;;;;;;;;;;;;;;1038452;28;4204;-49
2022/05/12 00:21:38;;;;;;;;;;;;;;;;;;1040673;28;3869;-46
2022/05/12 00:22:08;;;;;;;;;;;;;;;;;;1038501;28;4416;-47
2022/05/12 00:22:46;;;;;;;;;;;;;;;;;;1041142;28;1482;-47
2022/05/12 00:23:20;;;;;;;;;;;;;;;;;;1036755;28;4479;-47
2022/05/12 00:23:56;;;;;;;;;;;;;;;;;;1037280;28;3883;-49
2022/05/12 00:24:27;;;;;;;;;;;;;;;;;;1036828;28;3740;-46
2022/05/12 00:24:57;;;;;;;;;;;;;;;;;;1034703;28;4125;-48
2022/05/12 00:25:28;;;;;;;;;;;;;;;;;;1041279;28;3013;-49
2022/05/12 00:25:58;;;;;;;;;;;;;;;;;;1037433;28;3923;-48
2022/05/12 00:26:29;;;;;;;;;;;;;;;;;;1036554;28;3738;-46
2022/05/12 00:27:00;;;;;;;;;;;;;;;;;;1033897;28;4391;-44
2022/05/12 00:27:30;;;;;;;;;;;;;;;;;;1037729;28;3656;-48
2022/05/12 00:28:11;;;;;;;;;;;;;;;;;;1008932;28;10001641;-46
2022/05/12 00:28:41;;;;;;;;;;;;;;;;;;1031315;28;3852;-48
2022/05/12 00:29:11;;;;;;;;;;;;;;;;;;1035689;28;3809;-47
2022/05/12 00:29:55;;;;;;;;;;;;;;;;;;1037055;28;3100;-47
2022/05/12 00:30:33;;;;;;;;;;;;;;;;;;1034942;28;3962;-47
2022/05/12 00:31:03;;;;;;;;;;;;;;;;;;1035277;28;4102;-47
2022/05/12 00:31:36;;;;;;;;;;;;;;;;;;1036309;28;4066;-47
2022/05/12 00:32:06;;;;;;;;;;;;;;;;;;1035956;28;4077;-48
2022/05/12 00:32:37;;;;;;;;;;;;;;;;;;1038380;28;3987;-47
2022/05/12 00:33:08;;;;;;;;;;;;;;;;;;1040107;28;3787;-48
2022/05/12 00:33:38;;;;;;;;;;;;;;;;;;1040621;28;3990;-45
2022/05/12 00:34:08;;;;;;;;;;;;;;;;;;1039675;28;4034;-48
2022/05/12 00:34:39;;;;;;;;;;;;;;;;;;1039703;28;3878;-49
2022/05/12 00:35:10;;;;;;;;;;;;;;;;;;1038539;28;4397;-47
2022/05/12 00:35:41;;;;;;;;;;;;;;;;;;1039064;28;2881;-48
2022/05/12 00:36:11;;;;;;;;;;;;;;;;;;1038835;28;3985;-48
2022/05/12 00:36:42;;;;;;;;;;;;;;;;;;1040789;28;3976;-46
2022/05/12 00:37:13;;;;;;;;;;;;;;;;;;1039554;28;4410;-46
2022/05/12 00:37:43;;;;;;;;;;;;;;;;;;1037350;28;4053;-47
2022/05/12 00:38:14;;;;;;;;;;;;;;;;;;1033583;28;4053;-48
2022/05/12 00:38:44;;;;;;;;;;;;;;;;;;1034189;28;5138;-48
2022/05/12 00:39:14;;;;;;;;;;;;;;;;;;1034908;28;4168;-52
2022/05/12 00:39:44;;;;;;;;;;;;;;;;;;1038886;28;3952;-49
2022/05/12 00:40:16;;;;;;;;;;;;;;;;;;1038901;28;4135;-48
2022/05/12 00:40:46;;;;;;;;;;;;;;;;;;1039131;28;4117;-49
2022/05/12 00:41:17;;;;;;;;;;;;;;;;;;1039241;28;3881;-46
2022/05/12 00:41:47;;;;;;;;;;;;;;;;;;1039545;28;4139;-50
2022/05/12 00:42:17;;;;;;;;;;;;;;;;;;1039298;28;4031;-45
2022/05/12 00:42:52;;;;;;;;;;;;;;;;;;1040849;28;4124;-46
2022/05/12 00:43:42;;;;;;;;;;;;;;;;;;1041565;28;3857;-49
2022/05/12 00:44:15;;;;;;;;;;;;;;;;;;1040268;28;4203;-46
2022/05/12 00:44:45;;;;;;;;;;;;;;;;;;1040162;28;3852;-48
2022/05/12 00:45:15;;;;;;;;;;;;;;;;;;1041235;28;3730;-48
2022/05/12 00:45:46;;;;;;;;;;;;;;;;;;1040784;28;1922;-48
2022/05/12 00:46:26;;;;;;;;;;;;;;;;;;1040645;28;4165;-47
2022/05/12 00:46:57;;;;;;;;;;;;;;;;;;1040676;28;4228;-48
2022/05/12 00:47:27;;;;;;;;;;;;;;;;;;1041204;28;1668;-48
2022/05/12 00:47:58;;;;;;;;;;;;;;;;;;1040673;28;4047;-47
2022/05/12 00:48:28;;;;;;;;;;;;;;;;;;1040974;28;2946;-48
2022/05/12 00:49:03;;;;;;;;;;;;;;;;;;1039177;28;4299;-50
2022/05/12 00:49:37;;;;;;;;;;;;;;;;;;1039048;28;3397;-48
2022/05/12 00:50:07;;;;;;;;;;;;;;;;;;1037264;28;4437;-48
2022/05/12 00:50:39;;;;;;;;;;;;;;;;;;1039971;28;3899;-49
2022/05/12 00:51:10;;;;;;;;;;;;;;;;;;1041011;28;3914;-51
2022/05/12 00:51:43;;;;;;;;;;;;;;;;;;1038698;28;3906;-48
2022/05/12 00:52:15;;;;;;;;;;;;;;;;;;1038255;28;3801;-46
2022/05/12 00:52:46;;;;;;;;;;;;;;;;;;1040807;28;3404;-49
2022/05/12 00:53:16;;;;;;;;;;;;;;;;;;1041246;28;3834;-47
2022/05/12 00:53:48;;;;;;;;;;;;;;;;;;1036456;28;2447;-50
2022/05/12 00:54:20;;;;;;;;;;;;;;;;;;1034782;28;4134;-51
2022/05/12 00:54:55;;;;;;;;;;;;;;;;;;1034573;28;4283;-47
2022/05/12 00:55:27;;;;;;;;;;;;;;;;;;1037263;28;3114;-48
2022/05/12 00:55:58;;;;;;;;;;;;;;;;;;1040630;28;4257;-46
2022/05/12 00:56:29;;;;;;;;;;;;;;;;;;1036789;28;2186;-47
2022/05/12 00:56:59;;;;;;;;;;;;;;;;;;1035829;28;3809;-50
2022/05/12 00:57:31;;;;;;;;;;;;;;;;;;1036639;28;2894;-45
2022/05/12 00:58:04;;;;;;;;;;;;;;;;;;1032394;28;4092;-50
2022/05/12 00:58:35;;;;;;;;;;;;;;;;;;1033696;28;1808;-48
2022/05/12 00:59:08;;;;;;;;;;;;;;;;;;1034387;28;4667;-46
2022/05/12 00:59:38;;;;;;;;;;;;;;;;;;1035517;28;2328;-47
2022/05/12 01:00:10;;;;;;;;;;;;;;;;;;1039742;28;4239;-49
2022/05/12 01:00:41;;;;;;;;;;;;;;;;;;1040075;28;3789;-48
2022/05/12 01:01:11;;;;;;;;;;;;;;;;;;1040251;28;3893;-48
2022/05/12 01:01:41;;;;;;;;;;;;;;;;;;1041063;28;2921;-46
2022/05/12 01:02:14;;;;;;;;;;;;;;;;;;1039340;28;3852;-47
2022/05/12 01:02:47;;;;;;;;;;;;;;;;;;1040015;28;3782;-51
2022/05/12 01:03:19;;;;;;;;;;;;;;;;;;1040283;28;3885;-48
2022/05/12 01:03:49;;;;;;;;;;;;;;;;;;1040170;28;4217;-48
2022/05/12 01:04:20;;;;;;;;;;;;;;;;;;1036398;28;3934;-48
2022/05/12 01:04:51;;;;;;;;;;;;;;;;;;1034539;28;3935;-47
2022/05/12 01:05:22;;;;;;;;;;;;;;;;;;1036337;28;3376;-48
2022/05/12 01:05:52;;;;;;;;;;;;;;;;;;1034472;28;6929;-48
2022/05/12 01:06:23;;;;;;;;;;;;;;;;;;1035860;28;3788;-49
2022/05/12 01:06:53;;;;;;;;;;;;;;;;;;1036017;28;4135;-48
2022/05/12 01:07:23;;;;;;;;;;;;;;;;;;1036017;28;3599;-50
2022/05/12 01:07:57;;;;;;;;;;;;;;;;;;1034330;28;4014;-47
2022/05/12 01:08:27;;;;;;;;;;;;;;;;;;1037305;28;4026;-48
2022/05/12 01:08:58;;;;;;;;;;;;;;;;;;1034869;28;4343;-48
2022/05/12 01:09:30;;;;;;;;;;;;;;;;;;1035545;28;3932;-49
2022/05/12 01:10:01;;;;;;;;;;;;;;;;;;1034600;28;4077;-47
2022/05/12 01:10:31;;;;;;;;;;;;;;;;;;1040821;28;3834;-47
2022/05/12 01:11:08;;;;;;;;;;;;;;;;;;1039357;28;4065;-48
2022/05/12 01:11:39;;;;;;;;;;;;;;;;;;1039966;28;4060;-51
2022/05/12 01:12:10;;;;;;;;;;;;;;;;;;1039386;28;3778;-49
2022/05/12 01:12:43;;;;;;;;;;;;;;;;;;1040211;28;4204;-49
2022/05/12 01:13:13;;;;;;;;;;;;;;;;;;1040248;28;4087;-48
2022/05/12 01:13:46;;;;;;;;;;;;;;;;;;1041524;28;1760;-49
2022/05/12 01:14:16;;;;;;;;;;;;;;;;;;1040696;28;4368;-47
2022/05/12 01:14:47;;;;;;;;;;;;;;;;;;1039329;28;2862;-50
2022/05/12 01:15:17;;;;;;;;;;;;;;;;;;1036448;28;3991;-50
2022/05/12 01:15:49;;;;;;;;;;;;;;;;;;1035819;28;3146;-45
2022/05/12 01:16:52;;;;;;;;;;;;;;;;;;1035600;28;3818;-48
2022/05/12 01:17:24;;;;;;;;;;;;;;;;;;1025573;28;3849;-47
2022/05/12 01:18:01;;;;;;;;;;;;;;;;;;1024114;28;3971;-50
2022/05/12 01:18:33;;;;;;;;;;;;;;;;;;1034890;28;3643;-46
2022/05/12 01:19:04;;;;;;;;;;;;;;;;;;1039962;28;3906;-47
2022/05/12 01:19:41;;;;;;;;;;;;;;;;;;1040769;28;3745;-49
2022/05/12 01:20:12;;;;;;;;;;;;;;;;;;1039149;28;4312;-48
2022/05/12 01:20:42;;;;;;;;;;;;;;;;;;1040298;28;4004;-47
2022/05/12 01:21:13;;;;;;;;;;;;;;;;;;1040798;28;5041;-48
2022/05/12 01:21:43;;;;;;;;;;;;;;;;;;1039735;28;4173;-47
2022/05/12 01:22:28;;;;;;;;;;;;;;;;;;1041002;28;4168;-47
2022/05/12 01:23:06;;;;;;;;;;;;;;;;;;1040360;28;4237;-50
2022/05/12 01:23:38;;;;;;;;;;;;;;;;;;1040228;28;3891;-47
2022/05/12 01:24:08;;;;;;;;;;;;;;;;;;1039942;28;3892;-49
2022/05/12 01:24:41;;;;;;;;;;;;;;;;;;1041083;28;1735;-48
2022/05/12 01:25:16;;;;;;;;;;;;;;;;;;1038294;28;4279;-50
2022/05/12 01:25:47;;;;;;;;;;;;;;;;;;1039750;28;4129;-49
2022/05/12 01:26:17;;;;;;;;;;;;;;;;;;1035781;28;4159;-51
2022/05/12 01:26:47;;;;;;;;;;;;;;;;;;1035861;28;3757;-49
2022/05/12 01:27:19;;;;;;;;;;;;;;;;;;1033346;28;3744;-50
2022/05/12 01:27:49;;;;;;;;;;;;;;;;;;1030091;28;3928;-47
2022/05/12 01:28:19;;;;;;;;;;;;;;;;;;1033312;28;2564;-51
2022/05/12 01:28:50;;;;;;;;;;;;;;;;;;1034052;28;4290;-52
2022/05/12 01:29:20;;;;;;;;;;;;;;;;;;1041504;28;1729;-46
2022/05/12 01:30:04;;;;;;;;;;;;;;;;;;1039040;28;4070;-47
2022/05/12 01:30:41;;;;;;;;;;;;;;;;;;1041194;28;2317;-48
2022/05/12 01:31:16;;;;;;;;;;;;;;;;;;1039318;28;4587;-49
2022/05/12 01:31:46;;;;;;;;;;;;;;;;;;1039055;28;3053;-48
2022/05/12 01:32:17;;;;;;;;;;;;;;;;;;1040254;28;3759;-46
2022/05/12 01:32:48;;;;;;;;;;;;;;;;;;1035097;28;3846;-47
2022/05/12 01:33:18;;;;;;;;;;;;;;;;;;1035310;28;3851;-50
2022/05/12 01:33:51;;;;;;;;;;;;;;;;;;1036110;28;3829;-47
2022/05/12 01:34:21;;;;;;;;;;;;;;;;;;1032948;28;1630;-48
2022/05/12 01:34:55;;;;;;;;;;;;;;;;;;1036428;28;3809;-47
2022/05/12 01:35:25;;;;;;;;;;;;;;;;;;1032323;28;3000;-47
2022/05/12 01:35:56;;;;;;;;;;;;;;;;;;1033000;28;4056;-47
2022/05/12 01:36:26;;;;;;;;;;;;;;;;;;1034887;28;3788;-50
2022/05/12 01:36:56;;;;;;;;;;;;;;;;;;1037819;28;4209;-46
2022/05/12 01:37:26;;;;;;;;;;;;;;;;;;1036004;28;3186;-50
2022/05/12 01:37:57;;;;;;;;;;;;;;;;;;1035711;28;3910;-47
2022/05/12 01:38:27;;;;;;;;;;;;;;;;;;1040630;28;3776;-46
2022/05/12 01:38:57;;;;;;;;;;;;;;;;;;1038534;28;3817;-48
2022/05/12 01:39:28;;;;;;;;;;;;;;;;;;1041240;28;3860;-48
2022/05/12 01:39:58;;;;;;;;;;;;;;;;;;1039885;28;3904;-46
2022/05/12 01:40:28;;;;;;;;;;;;;;;;;;1041292;28;3513;-48
2022/05/12 01:40:59;;;;;;;;;;;;;;;;;;1035539;28;4093;-46
2022/05/12 01:41:29;;;;;;;;;;;;;;;;;;1035497;28;4660;-52
2022/05/12 01:41:59;;;;;;;;;;;;;;;;;;1035095;28;3945;-47
2022/05/12 01:42:30;;;;;;;;;;;;;;;;;;1035999;28;1809;-48
2022/05/12 01:43:00;;;;;;;;;;;;;;;;;;1038995;28;4317;-51
2022/05/12 01:43:30;;;;;;;;;;;;;;;;;;1039997;28;3886;-47
2022/05/12 01:44:02;;;;;;;;;;;;;;;;;;1040445;28;3872;-48
2022/05/12 01:44:33;;;;;;;;;;;;;;;;;;1040218;28;2906;-48
2022/05/12 01:45:06;;;;;;;;;;;;;;;;;;1039596;28;3875;-47
2022/05/12 01:45:36;;;;;;;;;;;;;;;;;;1040636;28;3216;-49
2022/05/12 01:46:07;;;;;;;;;;;;;;;;;;1040308;28;4014;-47
2022/05/12 01:46:38;;;;;;;;;;;;;;;;;;1038634;28;2900;-48
2022/05/12 01:47:09;;;;;;;;;;;;;;;;;;1040490;28;3911;-46
2022/05/12 01:47:40;;;;;;;;;;;;;;;;;;1040832;28;3841;-47
2022/05/12 01:48:11;;;;;;;;;;;;;;;;;;1035832;28;3887;-49
2022/05/12 01:48:42;;;;;;;;;;;;;;;;;;1036782;28;1726;-49
2022/05/12 01:49:12;;;;;;;;;;;;;;;;;;1035920;28;4061;-48
2022/05/12 01:49:42;;;;;;;;;;;;;;;;;;1037282;28;3214;-47
2022/05/12 01:50:14;;;;;;;;;;;;;;;;;;1039612;28;3950;-48
2022/05/12 01:50:45;;;;;;;;;;;;;;;;;;1038748;28;2200;-47
2022/05/12 01:51:15;;;;;;;;;;;;;;;;;;1039816;28;3774;-48
2022/05/12 01:51:45;;;;;;;;;;;;;;;;;;1038742;28;3976;-47
2022/05/12 01:52:16;;;;;;;;;;;;;;;;;;1037658;28;4389;-48
2022/05/12 01:52:46;;;;;;;;;;;;;;;;;;1041692;28;1896;-46
2022/05/12 01:53:17;;;;;;;;;;;;;;;;;;1040464;28;3799;-48
2022/05/12 01:53:47;;;;;;;;;;;;;;;;;;1040773;28;1781;-50
2022/05/12 01:54:17;;;;;;;;;;;;;;;;;;1039019;28;3930;-49
2022/05/12 01:54:48;;;;;;;;;;;;;;;;;;1039210;28;1643;-48
2022/05/12 01:55:19;;;;;;;;;;;;;;;;;;1039507;28;3949;-47
2022/05/12 01:55:49;;;;;;;;;;;;;;;;;;1039130;28;4242;-48
2022/05/12 01:56:20;;;;;;;;;;;;;;;;;;1041155;28;1819;-49
2022/05/12 01:56:50;;;;;;;;;;;;;;;;;;1039441;28;3820;-50
2022/05/12 01:57:22;;;;;;;;;;;;;;;;;;1040000;28;3367;-47
2022/05/12 01:57:53;;;;;;;;;;;;;;;;;;1040591;28;4045;-49
2022/05/12 01:58:23;;;;;;;;;;;;;;;;;;1040377;28;2882;-48
2022/05/12 01:58:53;;;;;;;;;;;;;;;;;;1036170;28;4054;-46
2022/05/12 01:59:24;;;;;;;;;;;;;;;;;;1036820;28;2237;-46
2022/05/12 01:59:54;;;;;;;;;;;;;;;;;;1036405;28;3813;-47
2022/05/12 02:00:26;;;;;;;;;;;;;;;;;;1034989;28;3893;-50
2022/05/12 02:00:57;;;;;;;;;;;;;;;;;;1036322;28;3906;-46
2022/05/12 02:01:27;;;;;;;;;;;;;;;;;;1041237;28;4051;-48
2022/05/12 02:01:57;;;;;;;;;;;;;;;;;;1038840;28;4363;-48
2022/05/12 02:02:28;;;;;;;;;;;;;;;;;;1039979;28;3276;-49
2022/05/12 02:03:00;;;;;;;;;;;;;;;;;;1038782;28;3917;-48
2022/05/12 02:03:31;;;;;;;;;;;;;;;;;;1041390;28;4635;-47
2022/05/12 02:04:02;;;;;;;;;;;;;;;;;;1039031;28;4468;-50
2022/05/12 02:04:32;;;;;;;;;;;;;;;;;;1039093;28;4109;-51
2022/05/12 02:05:03;;;;;;;;;;;;;;;;;;1039403;28;4146;-47
2022/05/12 02:05:34;;;;;;;;;;;;;;;;;;1033818;28;3888;-49
2022/05/12 02:06:04;;;;;;;;;;;;;;;;;;1032579;28;3917;-48
2022/05/12 02:06:35;;;;;;;;;;;;;;;;;;1032911;28;3587;-49
2022/05/12 02:07:06;;;;;;;;;;;;;;;;;;1034898;28;3931;-50
2022/05/12 02:07:37;;;;;;;;;;;;;;;;;;1038971;28;3875;-48
2022/05/12 02:08:08;;;;;;;;;;;;;;;;;;1039208;28;3959;-49
2022/05/12 02:08:38;;;;;;;;;;;;;;;;;;1040548;28;2355;-49
2022/05/12 02:09:08;;;;;;;;;;;;;;;;;;1039260;28;3882;-48
2022/05/12 02:09:39;;;;;;;;;;;;;;;;;;1037208;28;4015;-48
2022/05/12 02:10:12;;;;;;;;;;;;;;;;;;1038129;28;4148;-48
2022/05/12 02:10:45;;;;;;;;;;;;;;;;;;1040395;28;2270;-50
2022/05/12 02:11:16;;;;;;;;;;;;;;;;;;1039785;28;3816;-49
2022/05/12 02:11:46;;;;;;;;;;;;;;;;;;1040851;28;1793;-49
2022/05/12 02:12:16;;;;;;;;;;;;;;;;;;1040317;28;4055;-51
2022/05/12 02:12:47;;;;;;;;;;;;;;;;;;1041005;28;1330;-48
2022/05/12 02:13:18;;;;;;;;;;;;;;;;;;1040281;28;3771;-51
2022/05/12 02:13:48;;;;;;;;;;;;;;;;;;1034882;28;4239;-51
2022/05/12 02:14:19;;;;;;;;;;;;;;;;;;1034689;28;4051;-47
2022/05/12 02:14:49;;;;;;;;;;;;;;;;;;1036875;28;4238;-52
2022/05/12 02:15:19;;;;;;;;;;;;;;;;;;1034548;28;3670;-48
2022/05/12 02:15:57;;;;;;;;;;;;;;;;;;1039651;28;4148;-45
2022/05/12 02:16:29;;;;;;;;;;;;;;;;;;1031656;28;3976;-48
2022/05/12 02:17:00;;;;;;;;;;;;;;;;;;1032465;28;3931;-49
2022/05/12 02:17:30;;;;;;;;;;;;;;;;;;1032052;28;3176;-50
2022/05/12 02:18:00;;;;;;;;;;;;;;;;;;1031811;28;4506;-48
2022/05/12 02:18:31;;;;;;;;;;;;;;;;;;1036394;28;4245;-50
2022/05/12 02:19:02;;;;;;;;;;;;;;;;;;1035374;28;4405;-51
2022/05/12 02:19:32;;;;;;;;;;;;;;;;;;1036047;28;1686;-49
2022/05/12 02:20:02;;;;;;;;;;;;;;;;;;1035763;28;3934;-50
2022/05/12 02:20:33;;;;;;;;;;;;;;;;;;1033778;28;3658;-49
2022/05/12 02:21:03;;;;;;;;;;;;;;;;;;1034409;28;3852;-48
2022/05/12 02:21:34;;;;;;;;;;;;;;;;;;1034471;28;4293;-46
2022/05/12 02:22:06;;;;;;;;;;;;;;;;;;1038262;28;4333;-46
2022/05/12 02:22:37;;;;;;;;;;;;;;;;;;1039131;28;3836;-50
2022/05/12 02:23:07;;;;;;;;;;;;;;;;;;1040382;28;3858;-48
2022/05/12 02:23:38;;;;;;;;;;;;;;;;;;1038554;28;2944;-47
2022/05/12 02:24:08;;;;;;;;;;;;;;;;;;1038633;28;4016;-48
2022/05/12 02:24:38;;;;;;;;;;;;;;;;;;1034926;28;5488;-49
2022/05/12 02:25:09;;;;;;;;;;;;;;;;;;1036317;28;4047;-50
2022/05/12 02:25:39;;;;;;;;;;;;;;;;;;1037303;28;1630;-48
2022/05/12 02:26:09;;;;;;;;;;;;;;;;;;1034332;28;4238;-50
2022/05/12 02:26:40;;;;;;;;;;;;;;;;;;1032105;28;3029;-48
2022/05/12 02:27:10;;;;;;;;;;;;;;;;;;1035767;28;3833;-47
2022/05/12 02:27:45;;;;;;;;;;;;;;;;;;1033732;28;4577;-49
2022/05/12 02:28:15;;;;;;;;;;;;;;;;;;1031396;28;3833;-49
2022/05/12 02:28:45;;;;;;;;;;;;;;;;;;1035563;28;3480;-48
2022/05/12 02:29:16;;;;;;;;;;;;;;;;;;1033768;28;3880;-47
2022/05/12 02:29:46;;;;;;;;;;;;;;;;;;1034487;28;4193;-49
2022/05/12 02:30:30;;;;;;;;;;;;;;;;;;1037388;28;4039;-51
2022/05/12 02:31:08;;;;;;;;;;;;;;;;;;1037808;28;4215;-48
2022/05/12 02:31:38;;;;;;;;;;;;;;;;;;1037637;28;2108;-48
2022/05/12 02:32:08;;;;;;;;;;;;;;;;;;1037381;28;4041;-49
2022/05/12 02:32:38;;;;;;;;;;;;;;;;;;1041204;28;1743;-47
2022/05/12 02:33:09;;;;;;;;;;;;;;;;;;1040581;28;4245;-48
2022/05/12 02:33:40;;;;;;;;;;;;;;;;;;1040556;28;1954;-45
2022/05/12 02:34:10;;;;;;;;;;;;;;;;;;1037784;28;4089;-47
2022/05/12 02:34:41;;;;;;;;;;;;;;;;;;1037814;28;2890;-49
2022/05/12 02:35:11;;;;;;;;;;;;;;;;;;1039835;28;3947;-50
2022/05/12 02:35:41;;;;;;;;;;;;;;;;;;1038260;28;2852;-48
2022/05/12 02:36:12;;;;;;;;;;;;;;;;;;1036110;28;3870;-50
2022/05/12 02:36:42;;;;;;;;;;;;;;;;;;1036105;28;4051;-47
2022/05/12 02:37:12;;;;;;;;;;;;;;;;;;1034961;28;4102;-48
2022/05/12 02:37:43;;;;;;;;;;;;;;;;;;1035104;28;4096;-48
2022/05/12 02:38:13;;;;;;;;;;;;;;;;;;1039277;28;3897;-49
2022/05/12 02:38:44;;;;;;;;;;;;;;;;;;1037034;28;1597;-48
2022/05/12 02:39:14;;;;;;;;;;;;;;;;;;1035721;28;3947;-47
2022/05/12 02:39:44;;;;;;;;;;;;;;;;;;1027101;28;3179;-51
2022/05/12 02:40:17;;;;;;;;;;;;;;;;;;1026323;28;4092;-47
2022/05/12 02:40:47;;;;;;;;;;;;;;;;;;1027788;28;3878;-49
2022/05/12 02:41:18;;;;;;;;;;;;;;;;;;1027370;28;3926;-49
2022/05/12 02:41:48;;;;;;;;;;;;;;;;;;1034076;28;3842;-50
2022/05/12 02:42:18;;;;;;;;;;;;;;;;;;1033859;28;3343;-50
2022/05/12 02:42:49;;;;;;;;;;;;;;;;;;1037605;28;3990;-50
2022/05/12 02:43:25;;;;;;;;;;;;;;;;;;1033505;28;3157;-48
2022/05/12 02:43:56;;;;;;;;;;;;;;;;;;1032910;28;4247;-47
2022/05/12 02:44:26;;;;;;;;;;;;;;;;;;1032562;28;2184;-51
2022/05/12 02:44:56;;;;;;;;;;;;;;;;;;1033269;28;4309;-49
2022/05/12 02:45:27;;;;;;;;;;;;;;;;;;1032044;28;3449;-49
2022/05/12 02:46:05;;;;;;;;;;;;;;;;;;1031032;28;4173;-48
2022/05/12 02:46:35;;;;;;;;;;;;;;;;;;1037263;28;1883;-50
2022/05/12 02:47:07;;;;;;;;;;;;;;;;;;1030074;28;4359;-50
2022/05/12 02:47:37;;;;;;;;;;;;;;;;;;1030212;28;3856;-47
2022/05/12 02:48:08;;;;;;;;;;;;;;;;;;1032172;28;3805;-48
2022/05/12 02:48:43;;;;;;;;;;;;;;;;;;1040661;28;1862;-47
2022/05/12 02:49:13;;;;;;;;;;;;;;;;;;1037736;28;3933;-47
2022/05/12 02:49:49;;;;;;;;;;;;;;;;;;1040822;28;3942;-48
2022/05/12 02:50:20;;;;;;;;;;;;;;;;;;1039710;28;3851;-48
2022/05/12 02:50:50;;;;;;;;;;;;;;;;;;1039257;28;4240;-47
2022/05/12 02:51:20;;;;;;;;;;;;;;;;;;1040756;28;2031;-47
2022/05/12 02:51:51;;;;;;;;;;;;;;;;;;1037854;28;4119;-48
2022/05/12 02:52:21;;;;;;;;;;;;;;;;;;1038322;28;4152;-49
2022/05/12 02:52:51;;;;;;;;;;;;;;;;;;1036069;28;3989;-51
2022/05/12 02:53:22;;;;;;;;;;;;;;;;;;1034146;28;3932;-50
2022/05/12 02:53:58;;;;;;;;;;;;;;;;;;1034167;28;4418;-51
2022/05/12 02:54:29;;;;;;;;;;;;;;;;;;1038270;28;2686;-49
2022/05/12 02:55:00;;;;;;;;;;;;;;;;;;1038894;28;4411;-48
2022/05/12 02:55:30;;;;;;;;;;;;;;;;;;1039570;28;3115;-47
2022/05/12 02:56:00;;;;;;;;;;;;;;;;;;1040836;28;4275;-48
2022/05/12 02:56:31;;;;;;;;;;;;;;;;;;1034220;28;3264;-51
2022/05/12 02:57:01;;;;;;;;;;;;;;;;;;1036521;28;4490;-48
2022/05/12 02:57:32;;;;;;;;;;;;;;;;;;1034552;28;3719;-50
2022/05/12 02:58:02;;;;;;;;;;;;;;;;;;1032262;28;4298;-52
2022/05/12 02:58:33;;;;;;;;;;;;;;;;;;1039885;28;3029;-48
2022/05/12 02:59:04;;;;;;;;;;;;;;;;;;1038823;28;4215;-50
2022/05/12 02:59:34;;;;;;;;;;;;;;;;;;1039310;28;3740;-47
2022/05/12 03:00:07;;;;;;;;;;;;;;;;;;1039772;28;3877;-49
2022/05/12 03:00:38;;;;;;;;;;;;;;;;;;1039173;28;3505;-46
2022/05/12 03:01:08;;;;;;;;;;;;;;;;;;1039067;28;4436;-48
2022/05/12 03:01:39;;;;;;;;;;;;;;;;;;1041429;28;1422;-49
2022/05/12 03:02:09;;;;;;;;;;;;;;;;;;1038209;28;3870;-51
2022/05/12 03:02:39;;;;;;;;;;;;;;;;;;1039487;28;3064;-49
2022/05/12 03:03:10;;;;;;;;;;;;;;;;;;1039686;28;3850;-50
2022/05/12 03:03:41;;;;;;;;;;;;;;;;;;1040586;28;1861;-48
2022/05/12 03:04:18;;;;;;;;;;;;;;;;;;1035552;28;4036;-49
2022/05/12 03:04:48;;;;;;;;;;;;;;;;;;1037230;28;2937;-47
2022/05/12 03:05:18;;;;;;;;;;;;;;;;;;1035897;28;3962;-50
2022/05/12 03:05:52;;;;;;;;;;;;;;;;;;1036099;28;4225;-46
2022/05/12 03:06:22;;;;;;;;;;;;;;;;;;1036471;28;2274;-47
2022/05/12 03:06:52;;;;;;;;;;;;;;;;;;1034662;28;4076;-47
2022/05/12 03:07:23;;;;;;;;;;;;;;;;;;1032603;28;3214;-50
2022/05/12 03:07:53;;;;;;;;;;;;;;;;;;1030607;28;4141;-51
2022/05/12 03:08:23;;;;;;;;;;;;;;;;;;1035015;28;1611;-47
2022/05/12 03:08:54;;;;;;;;;;;;;;;;;;1040434;28;3991;-47
2022/05/12 03:09:25;;;;;;;;;;;;;;;;;;1039873;28;1971;-48
2022/05/12 03:09:55;;;;;;;;;;;;;;;;;;1035854;28;3997;-46
2022/05/12 03:10:25;;;;;;;;;;;;;;;;;;1037624;28;4383;-48
2022/05/12 03:10:55;;;;;;;;;;;;;;;;;;1037102;28;4089;-51
2022/05/12 03:11:26;;;;;;;;;;;;;;;;;;1037841;28;3994;-48
2022/05/12 03:11:56;;;;;;;;;;;;;;;;;;1032793;28;4390;-48
2022/05/12 03:12:27;;;;;;;;;;;;;;;;;;1027502;28;2955;-46
2022/05/12 03:12:57;;;;;;;;;;;;;;;;;;1029563;28;4158;-48
2022/05/12 03:13:27;;;;;;;;;;;;;;;;;;1029946;28;1690;-47
2022/05/12 03:13:59;;;;;;;;;;;;;;;;;;1034823;28;4217;-50
2022/05/12 03:14:29;;;;;;;;;;;;;;;;;;1039420;28;2498;-47
2022/05/12 03:15:00;;;;;;;;;;;;;;;;;;1040860;28;4463;-47
2022/05/12 03:15:31;;;;;;;;;;;;;;;;;;1040438;28;2155;-48
2022/05/12 03:16:01;;;;;;;;;;;;;;;;;;1036245;28;3895;-51
2022/05/12 03:16:31;;;;;;;;;;;;;;;;;;1039784;28;3860;-50
2022/05/12 03:17:02;;;;;;;;;;;;;;;;;;1038276;28;4391;-49
2022/05/12 03:17:32;;;;;;;;;;;;;;;;;;1038881;28;3899;-51
2022/05/12 03:18:02;;;;;;;;;;;;;;;;;;1040767;28;3857;-47
2022/05/12 03:18:33;;;;;;;;;;;;;;;;;;1035639;28;3100;-47
2022/05/12 03:19:03;;;;;;;;;;;;;;;;;;1039511;28;3943;-47
2022/05/12 03:19:34;;;;;;;;;;;;;;;;;;1038117;28;3083;-48
2022/05/12 03:20:05;;;;;;;;;;;;;;;;;;1035055;28;4083;-50
2022/05/12 03:20:35;;;;;;;;;;;;;;;;;;1034310;28;3213;-49
2022/05/12 03:21:05;;;;;;;;;;;;;;;;;;1034662;28;4279;-49
2022/05/12 03:21:36;;;;;;;;;;;;;;;;;;1030506;28;3511;-47
2022/05/12 03:22:06;;;;;;;;;;;;;;;;;;1031354;28;3822;-51
2022/05/12 03:22:37;;;;;;;;;;;;;;;;;;1028520;28;3209;-49
2022/05/12 03:23:08;;;;;;;;;;;;;;;;;;1031344;28;4380;-49
2022/05/12 03:23:38;;;;;;;;;;;;;;;;;;1031072;28;3390;-50
2022/05/12 03:24:09;;;;;;;;;;;;;;;;;;1029467;28;4048;-49
2022/05/12 03:24:39;;;;;;;;;;;;;;;;;;1030007;28;4974;-50
2022/05/12 03:25:11;;;;;;;;;;;;;;;;;;1034484;28;3873;-46
2022/05/12 03:25:43;;;;;;;;;;;;;;;;;;1035911;28;3340;-50
2022/05/12 03:26:14;;;;;;;;;;;;;;;;;;1038414;28;3961;-46
2022/05/12 03:26:44;;;;;;;;;;;;;;;;;;1038213;28;3871;-51
2022/05/12 03:27:15;;;;;;;;;;;;;;;;;;1039235;28;4413;-52
2022/05/12 03:27:46;;;;;;;;;;;;;;;;;;1038010;28;3735;-52
2022/05/12 03:28:16;;;;;;;;;;;;;;;;;;1038209;28;3907;-50
2022/05/12 03:28:47;;;;;;;;;;;;;;;;;;1038846;28;3842;-49
2022/05/12 03:29:17;;;;;;;;;;;;;;;;;;1038721;28;4932;-48
2022/05/12 03:29:47;;;;;;;;;;;;;;;;;;1039062;28;3601;-47
2022/05/12 03:30:30;;;;;;;;;;;;;;;;;;1037115;28;3790;-51
2022/05/12 03:31:08;;;;;;;;;;;;;;;;;;1038285;28;3887;-47
2022/05/12 03:31:38;;;;;;;;;;;;;;;;;;1040566;28;3477;-51
2022/05/12 03:32:10;;;;;;;;;;;;;;;;;;1037642;28;4361;-51
2022/05/12 03:32:40;;;;;;;;;;;;;;;;;;1040446;28;3111;-50
2022/05/12 03:33:11;;;;;;;;;;;;;;;;;;1037172;28;3909;-49
2022/05/12 03:33:48;;;;;;;;;;;;;;;;;;1037703;28;4129;-48
2022/05/12 03:34:18;;;;;;;;;;;;;;;;;;1039537;28;3767;-49
2022/05/12 03:34:49;;;;;;;;;;;;;;;;;;1037948;28;3798;-47
2022/05/12 03:35:19;;;;;;;;;;;;;;;;;;1038371;28;3762;-47
2022/05/12 03:35:50;;;;;;;;;;;;;;;;;;1040846;28;3951;-45
2022/05/12 03:36:22;;;;;;;;;;;;;;;;;;1040113;28;1979;-48
2022/05/12 03:36:52;;;;;;;;;;;;;;;;;;1036482;28;4239;-51
2022/05/12 03:37:22;;;;;;;;;;;;;;;;;;1035343;28;3079;-49
2022/05/12 03:37:52;;;;;;;;;;;;;;;;;;1035002;28;3888;-47